Time;durP1;ratioP1;P1;durP2;ratioP2;P2;SDS_P1;SDS_P2;PMS_P1;PMS_P2;Temp;Humidity;BMP_temperature;BMP_pressure;BME280_temperature;BME280_humidity;BME280_pressure;Samples;Min_cycle;Max_cycle;Signal;HPM_P1;HPM_P2
2022/03/29 00:02:05;;;;;;;18.73;10.00;;;;;;;7.86;40.56;100213.24;1429232;89;22143;-76
2022/03/29 00:04:31;;;;;;;16.80;8.97;;;;;;;7.84;40.35;100202.83;1412113;91;22091;-76
2022/03/29 00:06:57;;;;;;;20.37;8.43;;;;;;;7.85;40.44;100210.23;1429471;90;24061;-76
2022/03/29 00:09:23;;;;;;;15.27;7.03;;;;;;;7.82;40.78;100208.70;1420251;89;22197;-76
2022/03/29 00:11:49;;;;;;;17.10;7.83;;;;;;;7.84;40.37;100204.14;1415398;90;23088;-77
2022/03/29 00:14:15;;;;;;;17.03;8.77;;;;;;;7.85;40.24;100200.56;1438484;88;22190;-77
2022/03/29 00:16:42;;;;;;;16.37;7.63;;;;;;;7.85;40.17;100197.92;1471877;88;22095;-77
2022/03/29 00:19:08;;;;;;;15.13;8.00;;;;;;;7.88;40.14;100200.28;1460427;88;22091;-76
2022/03/29 00:21:34;;;;;;;14.97;7.80;;;;;;;7.86;40.07;100192.16;1463418;88;22124;-77
2022/03/29 00:24:01;;;;;;;18.30;7.53;;;;;;;7.88;39.94;100191.52;1470125;88;22116;-77
2022/03/29 00:26:27;;;;;;;18.03;7.60;;;;;;;7.88;39.95;100187.56;1442114;88;22071;-77
2022/03/29 00:28:54;;;;;;;16.33;7.43;;;;;;;7.89;40.02;100184.81;1442830;89;23135;-77
2022/03/29 00:31:20;;;;;;;22.17;7.53;;;;;;;7.89;39.80;100181.35;1463302;88;22109;-76
2022/03/29 00:33:47;;;;;;;15.20;7.07;;;;;;;7.89;39.83;100174.77;1446186;88;22208;-76
2022/03/29 00:36:15;;;;;;;13.93;6.93;;;;;;;7.89;39.59;100169.00;1443035;89;21397;-76
2022/03/29 00:38:41;;;;;;;12.37;6.50;;;;;;;7.89;39.49;100168.17;1445644;88;22965;-78
2022/03/29 00:41:09;;;;;;;12.73;7.33;;;;;;;7.87;39.43;100164.83;1462244;89;22068;-78
2022/03/29 00:43:35;;;;;;;17.50;7.43;;;;;;;7.86;39.27;100161.38;1463802;88;22234;-78
2022/03/29 00:46:01;;;;;;;20.87;8.50;;;;;;;7.87;39.18;100156.93;1452213;88;23010;-76
2022/03/29 00:48:28;;;;;;;16.33;7.93;;;;;;;7.87;39.03;100159.56;1460314;88;22906;-76
2022/03/29 00:50:55;;;;;;;12.00;6.23;;;;;;;7.87;38.84;100159.08;1453427;88;22102;-76
2022/03/29 00:53:22;;;;;;;19.63;8.13;;;;;;;7.88;38.65;100155.95;1452783;88;22105;-76
2022/03/29 00:55:51;;;;;;;14.60;7.53;;;;;;;7.88;38.64;100156.80;1468938;88;24224;-76
2022/03/29 00:58:17;;;;;;;21.83;8.27;;;;;;;7.86;38.50;100159.23;1464643;88;22132;-76
2022/03/29 01:00:44;;;;;;;15.23;7.17;;;;;;;7.83;38.47;100155.55;1465030;88;22162;-76
2022/03/29 01:03:11;;;;;;;17.80;7.43;;;;;;;7.80;38.43;100153.19;1467095;88;22183;-76
2022/03/29 01:05:37;;;;;;;37.80;8.80;;;;;;;7.76;38.39;100147.83;1466268;88;23048;-76
2022/03/29 01:08:05;;;;;;;15.27;7.13;;;;;;;7.72;38.46;100153.03;1446827;88;22162;-76
2022/03/29 01:10:31;;;;;;;21.97;8.20;;;;;;;7.66;38.48;100146.02;1443339;88;22071;-76
2022/03/29 01:12:58;;;;;;;14.80;7.60;;;;;;;7.60;38.52;100149.20;1442681;90;22168;-76
2022/03/29 01:15:26;;;;;;;19.60;8.70;;;;;;;7.54;38.61;100143.16;1442119;89;22330;-76
2022/03/29 01:17:54;;;;;;;17.13;6.97;;;;;;;7.48;38.66;100141.52;1448319;89;22177;-76
2022/03/29 01:20:27;;;;;;;16.07;6.67;;;;;;;7.41;38.77;100137.28;1439455;89;22307;-76
2022/03/29 01:22:55;;;;;;;15.27;7.10;;;;;;;7.36;38.72;100142.11;1441563;89;22084;-76
2022/03/29 01:25:26;;;;;;;12.27;6.77;;;;;;;7.29;38.88;100138.36;1445365;88;22047;-76
2022/03/29 01:27:53;;;;;;;;;;;;;;;7.24;38.92;100136.95;1428836;91;23239;-76
2022/03/29 01:30:21;;;;;;;18.30;7.43;;;;;;;7.12;39.03;100131.44;1433057;89;21974;-77
2022/03/29 01:32:50;;;;;;;17.23;6.97;;;;;;;7.12;39.03;100131.70;1440010;88;22580;-77
2022/03/29 01:35:23;;;;;;;14.87;7.37;;;;;;;7.09;39.07;100111.45;1435935;89;22146;-77
2022/03/29 01:37:51;;;;;;;14.07;6.90;;;;;;;7.00;39.14;100111.45;1446530;89;22099;-76
2022/03/29 01:40:21;;;;;;;14.33;7.10;;;;;;;6.94;39.45;100108.03;1469714;89;24138;-77
2022/03/29 01:42:54;;;;;;;22.77;8.40;;;;;;;6.94;39.45;100108.03;1457235;88;22043;-76
2022/03/29 01:45:24;;;;;;;13.57;6.73;;;;;;;6.87;39.41;100098.50;1458707;89;22119;-76
2022/03/29 01:47:50;;;;;;;16.97;7.45;;;;;;;6.87;39.41;100098.50;1465292;89;22936;-76
2022/03/29 01:50:16;;;;;;;18.73;8.60;;;;;;;6.83;39.56;100110.27;1439509;90;21479;-76
2022/03/29 01:52:47;;;;;;;23.73;8.07;;;;;;;6.73;40.09;100101.02;1452082;89;21412;-76
2022/03/29 01:55:19;;;;;;;15.32;7.37;;;;;;;6.73;40.09;100101.02;1457618;89;22082;-76
2022/03/29 01:57:46;;;;;;;21.00;8.67;;;;;;;6.68;39.81;100097.95;1446211;89;21414;-76
2022/03/29 02:00:30;;;;;;;16.63;8.33;;;;;;;6.64;40.03;100100.95;1423687;91;23087;-76
2022/03/29 02:02:58;;;;;;;21.73;9.30;;;;;;;6.56;40.40;100088.48;1435264;90;21848;-77
2022/03/29 02:05:25;;;;;;;15.17;8.30;;;;;;;6.47;40.54;100082.20;1432368;90;21836;-76
2022/03/29 02:07:51;;;;;;;22.87;9.90;;;;;;;6.47;40.54;100082.20;1458930;88;22793;-76
2022/03/29 02:10:22;;;;;;;22.80;8.93;;;;;;;6.50;40.44;100087.66;1445231;89;21957;-76
2022/03/29 02:12:50;;;;;;;19.05;10.23;;;;;;;6.48;40.64;100086.97;1440718;89;21991;-76
2022/03/29 02:15:18;;;;;;;18.87;9.80;;;;;;;6.39;40.54;100076.75;1458777;88;21778;-76
2022/03/29 02:17:48;;;;;;;22.17;9.93;;;;;;;6.38;40.77;100079.49;1440628;90;21762;-76
2022/03/29 02:20:14;;;;;;;22.40;9.03;;;;;;;6.38;40.77;100079.49;1443756;89;21819;-76
2022/03/29 02:22:42;;;;;;;16.63;8.97;;;;;;;6.32;41.17;100069.84;1450139;89;21982;-76
2022/03/29 02:25:10;;;;;;;17.30;8.73;;;;;;;6.35;40.80;100070.55;1437231;89;21678;-76
2022/03/29 02:27:41;;;;;;;25.37;9.03;;;;;;;6.34;41.21;100071.05;1450634;89;22779;-76
2022/03/29 02:30:09;;;;;;;20.92;9.13;;;;;;;6.37;40.86;100069.95;1464611;89;21657;-77
2022/03/29 02:32:35;;;;;;;21.63;9.70;;;;;;;6.34;40.97;100063.16;1455750;88;22404;-76
2022/03/29 02:35:02;;;;;;;14.90;9.17;;;;;;;6.36;41.05;100063.01;1434143;90;22345;-77
2022/03/29 02:37:28;;;;;;;29.97;10.33;;;;;;;6.36;41.21;100055.13;1436892;89;22784;-76
2022/03/29 02:39:54;;;;;;;20.30;9.83;;;;;;;6.36;40.99;100055.13;1451307;89;21812;-76
2022/03/29 02:42:20;;;;;;;20.90;9.80;;;;;;;6.37;41.03;100056.33;1459892;89;21863;-76
2022/03/29 02:44:46;;;;;;;19.60;9.37;;;;;;;6.37;41.03;100056.33;1455042;89;21893;-76
2022/03/29 02:47:12;;;;;;;18.33;10.27;;;;;;;6.39;40.76;100052.23;1446762;89;21360;-76
2022/03/29 02:49:38;;;;;;;24.10;10.00;;;;;;;6.38;40.63;100052.72;1444244;89;23598;-76
2022/03/29 02:52:05;;;;;;;20.77;10.37;;;;;;;6.39;40.58;100060.13;1437066;90;21742;-77
2022/03/29 02:54:31;;;;;;;17.27;9.23;;;;;;;6.38;40.64;100052.72;1450651;89;22351;-77
2022/03/29 02:56:57;;;;;;;19.50;9.70;;;;;;;6.38;40.79;100044.01;1461383;88;22750;-77
2022/03/29 02:59:23;;;;;;;15.57;9.10;;;;;;;6.38;40.69;100045.32;1450785;88;21642;-77
2022/03/29 03:01:49;;;;;;;15.57;10.17;;;;;;;6.38;40.71;100038.27;1442427;89;21739;-76
2022/03/29 03:04:15;;;;;;;25.30;8.60;;;;;;;6.41;40.54;100035.86;1440026;90;21415;-77
2022/03/29 03:06:42;;;;;;;22.73;8.43;;;;;;;6.40;40.63;100025.01;1426483;90;21413;-77
2022/03/29 03:09:09;;;;;;;29.67;11.40;;;;;;;6.41;40.49;100026.66;1437100;90;21400;-77
2022/03/29 03:11:36;;;;;;;19.33;8.63;;;;;;;6.44;40.32;100019.83;1469383;88;21794;-77
2022/03/29 03:14:03;;;;;;;18.33;8.97;;;;;;;6.44;40.32;100019.83;1469649;88;21747;-77
2022/03/29 03:16:29;;;;;;;23.23;9.13;;;;;;;6.40;40.33;100009.23;1448578;89;21951;-77
2022/03/29 03:18:55;;;;;;;20.13;10.03;;;;;;;6.40;40.33;100009.23;1449150;90;22138;-75
2022/03/29 03:21:21;;;;;;;28.97;9.80;;;;;;;6.50;40.07;100017.52;1447381;90;21785;-76
2022/03/29 03:23:48;;;;;;;16.30;8.10;;;;;;;6.50;40.07;100017.52;1446472;90;21765;-76
2022/03/29 03:26:14;;;;;;;16.30;9.20;;;;;;;6.53;40.04;100013.31;1437654;90;22222;-76
2022/03/29 03:28:40;;;;;;;19.33;9.30;;;;;;;6.56;39.89;100010.91;1442479;89;22828;-76
2022/03/29 03:31:06;;;;;;;18.43;8.37;;;;;;;6.57;39.87;100005.98;1465755;89;21831;-76
2022/03/29 03:33:32;;;;;;;17.37;8.37;;;;;;;6.58;39.92;100006.33;1446084;89;21813;-76
2022/03/29 03:35:58;;;;;;;26.87;8.90;;;;;;;6.59;39.81;100013.27;1445408;89;21958;-76
2022/03/29 03:38:24;;;;;;;18.83;10.07;;;;;;;6.59;39.74;100001.90;1464022;89;21442;-76
2022/03/29 03:40:50;;;;;;;14.03;9.80;;;;;;;6.60;39.69;100005.72;1449300;89;21458;-76
2022/03/29 03:43:16;;;;;;;21.13;9.63;;;;;;;6.59;39.60;99993.55;1448188;90;22117;-76
2022/03/29 03:45:42;;;;;;;18.57;8.97;;;;;;;6.66;39.36;99999.93;1438614;89;21926;-76
2022/03/29 03:48:08;;;;;;;13.80;7.80;;;;;;;6.66;39.36;99999.93;1467648;89;22970;-77
2022/03/29 03:50:34;;;;;;;17.60;8.93;;;;;;;6.69;39.46;100000.16;1456971;89;21390;-76
2022/03/29 03:53:00;;;;;;;37.33;10.60;;;;;;;6.69;39.36;99996.20;1448286;89;21920;-76
2022/03/29 03:55:27;;;;;;;24.07;9.77;;;;;;;6.71;39.29;99994.28;1446841;89;22484;-76
2022/03/29 03:57:55;;;;;;;20.53;9.03;;;;;;;6.71;39.27;99980.65;1456161;89;22120;-76
2022/03/29 04:00:21;;;;;;;20.50;9.10;;;;;;;6.73;39.26;99983.98;1460058;89;23063;-76
2022/03/29 04:02:50;;;;;;;16.13;7.90;;;;;;;6.71;39.35;99986.39;1447504;88;22205;-77
2022/03/29 04:05:17;;;;;;;20.47;8.30;;;;;;;6.66;39.33;99977.58;1445675;89;22059;-76
2022/03/29 04:07:43;;;;;;;18.30;9.23;;;;;;;6.63;39.29;99975.22;1435669;89;22222;-76
2022/03/29 04:10:10;;;;;;;22.60;9.53;;;;;;;6.68;39.24;99969.95;1462764;89;21839;-76
2022/03/29 04:12:36;;;;;;;15.03;9.20;;;;;;;6.63;39.19;99969.95;1443444;89;22112;-76
2022/03/29 04:15:04;;;;;;;17.60;9.50;;;;;;;6.68;39.18;99974.34;1465873;89;23064;-76
2022/03/29 04:17:31;;;;;;;23.90;8.53;;;;;;;6.64;39.36;99970.30;1452147;88;21524;-76
2022/03/29 04:20:00;;;;;;;24.60;9.00;;;;;;;6.64;39.36;99970.30;1433572;89;22000;-77
2022/03/29 04:22:26;;;;;;;22.43;9.37;;;;;;;6.61;39.55;99958.73;1436646;90;22875;-78
2022/03/29 04:24:51;;;;;;;24.97;10.70;;;;;;;6.66;39.32;99966.23;1465178;89;21890;-77
2022/03/29 04:27:17;;;;;;;19.73;9.40;;;;;;;6.70;39.16;99963.22;1443010;89;22125;-77
2022/03/29 04:29:43;;;;;;;16.67;9.43;;;;;;;6.70;39.16;99963.22;1439276;89;22065;-77
2022/03/29 04:32:09;;;;;;;22.13;9.87;;;;;;;6.73;39.20;99958.14;1448662;89;21375;-80
2022/03/29 04:34:35;;;;;;;21.33;10.53;;;;;;;6.78;39.16;99955.45;1429679;89;21405;-81
2022/03/29 04:37:02;;;;;;;22.07;10.67;;;;;;;6.81;38.82;99933.31;1438176;89;22147;-80
2022/03/29 04:39:30;;;;;;;20.50;10.53;;;;;;;6.94;38.45;99947.55;1460530;89;22047;-79
2022/03/29 04:41:55;;;;;;;22.53;9.30;;;;;;;6.94;38.45;99947.55;1438923;89;22124;-79
2022/03/29 04:44:21;;;;;;;21.60;10.47;;;;;;;6.92;38.51;99924.00;1458840;88;23220;-78
2022/03/29 04:46:47;;;;;;;18.17;10.30;;;;;;;7.03;38.05;99935.38;1438657;89;21406;-79
2022/03/29 04:49:13;;;;;;;22.23;10.27;;;;;;;7.12;37.86;99948.53;1456919;89;21369;-79
2022/03/29 04:51:39;;;;;;;28.27;10.30;;;;;;;7.19;37.83;99943.09;1429563;88;21571;-79
2022/03/29 04:54:05;;;;;;;27.17;10.87;;;;;;;7.24;37.39;99943.97;1440675;89;21339;-80
2022/03/29 04:56:33;;;;;;;37.83;10.90;;;;;;;7.31;37.26;99937.20;1463298;88;23205;-80
2022/03/29 04:58:59;;;;;;;26.40;10.20;;;;;;;7.36;37.30;99934.95;1464984;88;22072;-79
2022/03/29 05:01:25;;;;;;;25.90;10.97;;;;;;;7.41;37.35;99939.33;1463580;88;22127;-80
2022/03/29 05:03:51;;;;;;;25.50;10.93;;;;;;;7.46;37.28;99940.23;1464397;88;21442;-80
2022/03/29 05:06:17;;;;;;;33.90;11.67;;;;;;;7.51;37.44;99940.66;1461562;88;22137;-78
2022/03/29 05:08:43;;;;;;;26.27;12.43;;;;;;;7.54;37.60;99936.89;1439266;88;22100;-78
2022/03/29 05:11:08;;;;;;;646.43;63.90;;;;;;;7.60;37.84;99945.08;1434436;88;21534;-81
2022/03/29 05:13:35;;;;;;;26.80;12.10;;;;;;;7.64;37.92;99943.81;1455409;89;21405;-81
2022/03/29 05:16:01;;;;;;;24.73;11.50;;;;;;;7.71;38.10;99939.30;1459083;89;22403;-78
2022/03/29 05:18:28;;;;;;;26.30;12.23;;;;;;;7.76;38.29;99936.59;1457569;88;22142;-78
2022/03/29 05:20:54;;;;;;;21.70;11.63;;;;;;;7.81;38.32;99933.54;1458175;88;22105;-79
2022/03/29 05:23:20;;;;;;;24.57;12.63;;;;;;;7.86;38.43;99926.88;1452477;89;21338;-78
2022/03/29 05:25:46;;;;;;;36.83;12.70;;;;;;;7.95;38.59;99932.27;1470396;89;23079;-78
2022/03/29 05:28:12;;;;;;;28.23;12.87;;;;;;;8.00;38.62;99934.82;1431248;89;21333;-78
2022/03/29 05:30:38;;;;;;;20.13;12.20;;;;;;;8.03;38.47;99924.48;1438745;90;22024;-77
2022/03/29 05:33:05;;;;;;;21.80;12.73;;;;;;;8.17;38.57;99925.80;1443516;89;21495;-77
2022/03/29 05:35:32;;;;;;;22.77;13.87;;;;;;;8.17;38.57;99925.80;1445169;90;21363;-77
2022/03/29 05:38:01;;;;;;;27.37;13.93;;;;;;;8.24;38.40;99924.27;1437139;90;22358;-77
2022/03/29 05:40:28;;;;;;;31.47;13.77;;;;;;;8.32;38.49;99924.37;1448023;90;21436;-80
2022/03/29 05:42:56;;;;;;;39.47;14.07;;;;;;;8.42;38.03;99917.76;1441771;90;23420;-79
2022/03/29 05:45:22;;;;;;;33.23;13.20;;;;;;;8.50;37.83;99913.41;1438050;90;21385;-78
2022/03/29 05:50:33;;;;;;;24.37;13.17;;;;;;;8.74;37.77;99918.63;1437651;90;21495;-78
2022/03/29 05:53:00;;;;;;;31.67;14.57;;;;;;;8.86;37.33;99912.64;1451628;90;21437;-78
2022/03/29 05:55:27;;;;;;;30.13;12.73;;;;;;;8.97;36.97;99916.39;1448703;90;22336;-78
2022/03/29 05:57:54;;;;;;;23.07;12.47;;;;;;;9.08;36.56;99914.85;1433536;90;21333;-78
2022/03/29 06:00:23;;;;;;;35.80;13.33;;;;;;;9.19;36.69;99915.13;1439600;90;22368;-78
2022/03/29 06:02:50;;;;;;;25.77;13.50;;;;;;;9.32;36.17;99911.63;1443229;90;21384;-79
2022/03/29 06:05:16;;;;;;;30.83;13.23;;;;;;;9.46;36.14;99908.41;1448387;90;22294;-77
2022/03/29 06:07:42;;;;;;;22.57;13.50;;;;;;;9.62;35.41;99905.08;1440663;90;22383;-77
2022/03/29 06:10:09;;;;;;;29.47;12.73;;;;;;;9.79;35.02;99899.42;1443471;90;22249;-77
2022/03/29 06:12:38;;;;;;;34.07;11.33;;;;;;;9.97;34.68;99902.50;1446922;90;23378;-76
2022/03/29 06:15:08;;;;;;;24.83;13.00;;;;;;;10.15;34.73;99901.92;1449563;90;21488;-76
2022/03/29 06:17:35;;;;;;;27.63;12.20;;;;;;;10.33;34.33;99904.55;1443076;89;21421;-75
2022/03/29 06:20:06;;;;;;;780.17;72.77;;;;;;;10.48;33.56;99904.77;1438824;90;21502;-76
2022/03/29 06:22:34;;;;;;;22.85;11.08;;;;;;;10.62;32.53;99905.48;1447504;90;21510;-76
2022/03/29 06:25:00;;;;;;;25.60;11.73;;;;;;;10.74;32.85;99904.19;1436603;90;21451;-76
2022/03/29 06:27:26;;;;;;;25.93;11.73;;;;;;;10.89;33.09;99903.55;1446864;90;21547;-76
2022/03/29 06:29:58;;;;;;;36.93;11.73;;;;;;;11.04;32.24;99895.30;1442494;90;21856;-77
2022/03/29 06:32:23;;;;;;;21.50;10.97;;;;;;;11.17;30.98;99896.16;1439232;90;21562;-76
2022/03/29 06:34:49;;;;;;;118.43;14.73;;;;;;;11.30;31.21;99895.16;1448373;90;22316;-77
2022/03/29 06:37:16;;;;;;;25.23;10.57;;;;;;;11.42;30.40;99898.30;1436408;89;21566;-76
2022/03/29 06:39:42;;;;;;;16.97;10.00;;;;;;;11.45;30.19;99892.66;1444570;90;21369;-76
2022/03/29 06:42:09;;;;;;;20.37;11.20;;;;;;;11.52;30.76;99888.38;1443577;89;21523;-78
2022/03/29 06:44:35;;;;;;;17.97;10.53;;;;;;;11.61;30.54;99894.49;1451533;89;21686;-78
2022/03/29 06:47:02;;;;;;;21.77;10.47;;;;;;;11.71;30.78;99888.53;1426822;91;21457;-78
2022/03/29 06:49:29;;;;;;;19.73;10.70;;;;;;;11.79;30.11;99889.00;1466667;89;21532;-79
2022/03/29 06:52:03;;;;;;;18.77;11.20;;;;;;;11.85;29.68;99890.97;1372231;90;21261;-79
2022/03/29 06:54:30;;;;;;;28.87;11.30;;;;;;;11.89;29.81;99885.20;1529606;89;21213;-78
2022/03/29 06:56:57;;;;;;;20.67;10.00;;;;;;;11.98;29.86;99879.88;1399615;89;21264;-79
2022/03/29 06:59:23;;;;;;;28.63;10.20;;;;;;;12.05;29.60;99880.84;1374848;89;21346;-79
2022/03/29 07:01:49;;;;;;;28.07;11.43;;;;;;;12.12;29.52;99880.00;1444056;89;22284;-80
2022/03/29 07:04:15;;;;;;;45.73;13.87;;;;;;;12.19;29.23;99871.67;1375269;90;21221;-79
2022/03/29 07:06:41;;;;;;;17.50;9.57;;;;;;;12.32;29.39;99868.98;1494360;89;21295;-79
2022/03/29 07:11:52;;;;;;;17.77;9.00;;;;;;;12.54;29.07;99872.18;1521201;89;21319;-82
2022/03/29 07:14:18;;;;;;;18.40;10.27;;;;;;;12.63;29.07;99861.87;1452025;88;21516;-83
2022/03/29 07:16:45;;;;;;;15.13;8.50;;;;;;;12.71;28.78;99860.97;1439402;88;21420;-83
2022/03/29 07:19:11;;;;;;;19.43;8.23;;;;;;;12.80;28.96;99856.44;1393251;93;22420;-84
2022/03/29 07:21:39;;;;;;;17.47;8.63;;;;;;;12.92;28.82;99859.03;1439203;90;21464;-85
2022/03/29 07:24:09;;;;;;;22.63;9.53;;;;;;;13.01;28.79;99863.28;1442996;89;21473;-85
2022/03/29 07:26:37;;;;;;;19.77;9.30;;;;;;;13.09;28.71;99857.09;1440528;90;21449;-82
2022/03/29 07:29:04;;;;;;;17.37;9.37;;;;;;;13.24;29.37;99868.59;1437458;90;21369;-83
2022/03/29 07:31:32;;;;;;;26.90;9.67;;;;;;;13.36;29.09;99859.72;1438502;90;21420;-82
2022/03/29 07:33:58;;;;;;;29.60;9.67;;;;;;;13.48;29.17;99867.57;1367148;89;21505;-82
2022/03/29 07:36:24;;;;;;;20.33;9.93;;;;;;;13.58;29.28;99862.50;1517205;90;22700;-83
2022/03/29 07:38:51;;;;;;;18.10;9.27;;;;;;;13.71;29.30;99868.84;1416300;89;21458;-83
2022/03/29 07:41:17;;;;;;;26.43;11.17;;;;;;;13.85;29.24;99861.90;1439444;89;21509;-83
2022/03/29 07:43:44;;;;;;;22.70;9.50;;;;;;;13.96;29.27;99864.11;1446909;89;21347;-84
2022/03/29 07:46:10;;;;;;;24.47;9.23;;;;;;;13.99;29.29;99869.06;1435001;89;21360;-84
2022/03/29 07:48:36;;;;;;;32.73;9.53;;;;;;;14.02;29.10;99865.21;1442267;90;22060;-84
2022/03/29 07:51:02;;;;;;;33.43;11.17;;;;;;;14.10;29.43;99860.31;1444066;89;22217;-81
2022/03/29 07:53:29;;;;;;;22.17;11.23;;;;;;;14.11;29.36;99859.29;1444133;90;22329;-84
2022/03/29 07:55:56;;;;;;;25.77;10.27;;;;;;;14.21;29.46;99855.83;1398484;93;21450;-81
2022/03/29 07:58:23;;;;;;;20.50;10.27;;;;;;;14.37;30.00;99848.98;1432073;90;21383;-81
2022/03/29 08:00:51;;;;;;;24.30;10.90;;;;;;;14.49;29.84;99847.98;1448556;89;22315;-83
2022/03/29 08:03:20;;;;;;;24.10;9.97;;;;;;;14.58;29.88;99848.73;1446962;90;21385;-83
2022/03/29 08:05:48;;;;;;;23.20;10.53;;;;;;;14.68;29.95;99843.13;1452484;89;21466;-83
2022/03/29 08:08:16;;;;;;;15.47;9.50;;;;;;;14.77;30.20;99842.80;1439732;90;22278;-83
2022/03/29 08:10:45;;;;;;;27.40;10.40;;;;;;;14.88;30.08;99849.48;1447419;89;21450;-83
2022/03/29 08:13:12;;;;;;;20.97;10.13;;;;;;;14.97;29.96;99850.18;1445338;89;21502;-84
2022/03/29 08:15:40;;;;;;;25.00;11.53;;;;;;;15.02;29.81;99842.45;1440625;89;21317;-84
2022/03/29 08:18:08;;;;;;;20.00;11.10;;;;;;;14.96;30.03;99835.19;1437238;90;21428;-83
2022/03/29 08:20:35;;;;;;;23.77;11.50;;;;;;;15.00;29.94;99826.63;1440466;90;21829;-84
2022/03/29 08:23:02;;;;;;;23.53;11.73;;;;;;;15.04;29.88;99829.73;1454861;90;21375;-84
2022/03/29 08:25:32;;;;;;;23.97;12.27;;;;;;;15.07;30.18;99827.50;1445778;90;21494;-84
2022/03/29 08:28:00;;;;;;;27.60;12.00;;;;;;;15.12;30.21;99827.77;1443274;89;21463;-83
2022/03/29 08:30:29;;;;;;;26.37;11.57;;;;;;;15.32;30.53;99817.27;1444231;90;21493;-83
2022/03/29 08:32:57;;;;;;;37.40;12.93;;;;;;;15.46;30.26;99820.05;1439255;90;21495;-84
2022/03/29 08:35:24;;;;;;;24.97;10.87;;;;;;;15.51;30.30;99811.78;1440032;89;21390;-83
2022/03/29 08:37:51;;;;;;;31.77;12.40;;;;;;;15.58;30.00;99815.30;1438689;89;21487;-83
2022/03/29 08:40:26;;;;;;;23.27;11.30;;;;;;;15.67;30.21;99811.97;1441998;90;21338;-84
2022/03/29 08:42:54;;;;;;;30.57;11.20;;;;;;;15.83;30.46;99810.06;1414223;92;21451;-83
2022/03/29 08:45:18;;;;;;;32.90;11.93;;;;;;;15.85;30.39;99810.66;1395459;93;21510;-82
2022/03/29 08:47:46;;;;;;;24.43;12.40;;;;;;;15.86;30.27;99816.34;1444580;90;22433;-83
2022/03/29 08:50:14;;;;;;;21.07;12.03;;;;;;;15.89;30.09;99810.09;1441323;89;21368;-82
2022/03/29 08:52:41;;;;;;;27.27;11.77;;;;;;;15.96;30.58;99801.59;1446880;90;22248;-82
2022/03/29 08:55:09;;;;;;;22.10;11.00;;;;;;;16.17;30.56;99805.17;1443052;89;22432;-83
2022/03/29 08:57:37;;;;;;;21.13;11.63;;;;;;;16.31;30.37;99800.19;1422820;90;21368;-83
2022/03/29 09:00:05;;;;;;;26.83;12.43;;;;;;;16.34;30.26;99801.64;1441644;90;21376;-83
2022/03/29 09:02:37;;;;;;;23.03;12.40;;;;;;;16.37;30.28;99798.57;1443326;89;22484;-83
2022/03/29 09:05:23;;;;;;;26.30;12.23;;;;;;;16.47;30.40;99797.17;1429153;90;22304;-85
2022/03/29 09:07:53;;;;;;;27.60;13.20;;;;;;;16.57;29.92;99794.63;1399605;93;21356;-85
2022/03/29 09:10:23;;;;;;;23.55;11.57;;;;;;;16.61;30.19;99781.19;1447531;90;21890;-83
2022/03/29 09:12:50;;;;;;;26.07;14.30;;;;;;;16.65;30.09;99784.57;1438289;90;21339;-83
2022/03/29 09:15:16;;;;;;;51.30;14.23;;;;;;;16.78;30.02;99778.98;1444015;90;21557;-85
2022/03/29 09:17:46;;;;;;;26.63;13.00;;;;;;;16.87;30.24;99768.41;1445948;90;21398;-84
2022/03/29 09:20:23;;;;;;;29.05;11.65;;;;;;;17.01;30.01;99780.75;1444357;90;22506;-85
2022/03/29 09:22:53;;;;;;;27.87;13.07;;;;;;;17.05;30.01;99767.27;1436957;90;21406;-87
2022/03/29 09:25:36;;;;;;;21.43;12.03;;;;;;;17.16;29.71;99769.03;1455450;90;21460;-84
2022/03/29 09:28:14;;;;;;;25.83;12.03;;;;;;;17.32;29.61;99765.91;1445359;90;21465;-85
2022/03/29 09:30:53;;;;;;;25.87;12.70;;;;;;;17.33;29.48;99756.36;1438774;90;21636;-85
2022/03/29 09:33:32;;;;;;;43.70;12.13;;;;;;;17.49;29.42;99751.09;1448788;90;22270;-85
2022/03/29 09:36:07;;;;;;;27.10;12.53;;;;;;;17.58;29.40;99745.82;1439541;90;21479;-85
2022/03/29 09:38:41;;;;;;;23.47;12.07;;;;;;;17.74;29.44;99747.72;1432971;89;21440;-86
2022/03/29 09:41:28;;;;;;;27.87;12.70;;;;;;;17.89;29.23;99740.28;1449261;90;22439;-85
2022/03/29 09:44:07;;;;;;;19.50;11.47;;;;;;;18.06;29.18;99743.82;1441437;90;21391;-85
2022/03/29 09:47:00;;;;;;;24.63;13.07;;;;;;;18.21;28.83;99734.48;1435843;90;21265;-85
2022/03/29 09:49:28;;;;;;;20.63;9.97;;;;;;;18.41;28.94;99730.36;1387087;93;21562;-84
2022/03/29 09:52:14;;;;;;;20.67;11.73;;;;;;;18.61;29.16;99733.41;1442526;90;21384;-85
2022/03/29 09:54:41;;;;;;;27.70;13.27;;;;;;;18.73;28.50;99723.65;1446745;90;21376;-85
2022/03/29 09:57:07;;;;;;;24.73;11.50;;;;;;;18.89;28.76;99727.14;1441101;90;21509;-89
2022/03/29 09:59:34;;;;;;;22.90;11.93;;;;;;;18.89;29.17;99717.75;1435216;90;21368;-89
2022/03/29 10:02:00;;;;;;;44.40;12.10;;;;;;;19.03;28.37;99713.10;1441911;90;21442;-88
2022/03/29 10:04:29;;;;;;;21.00;12.27;;;;;;;19.09;28.50;99720.27;1439955;90;21413;-88
2022/03/29 10:06:59;;;;;;;22.33;10.73;;;;;;;19.14;28.36;99714.25;1443686;90;21250;-90
2022/03/29 10:09:33;;;;;;;25.62;12.03;;;;;;;19.15;28.33;99705.16;1439794;89;21435;-89
2022/03/29 10:12:05;;;;;;;19.90;11.40;;;;;;;19.23;28.55;99701.38;1448593;89;22425;-88
2022/03/29 10:14:40;;;;;;;29.60;11.47;;;;;;;19.34;28.44;99703.33;1449964;90;21501;-87
2022/03/29 10:17:07;;;;;;;15.27;10.23;;;;;;;19.48;28.78;99706.66;1449602;90;21449;-85
2022/03/29 10:19:36;;;;;;;22.43;13.33;;;;;;;19.62;28.44;99698.76;1448197;90;21428;-86
2022/03/29 10:22:04;;;;;;;17.83;11.17;;;;;;;19.70;28.42;99687.75;1436750;90;21502;-86
2022/03/29 10:24:31;;;;;;;29.83;12.23;;;;;;;19.81;28.38;99693.71;1441200;90;21384;-85
2022/03/29 10:27:00;;;;;;;22.10;11.87;;;;;;;19.84;28.25;99681.17;1443326;90;21465;-85
2022/03/29 10:29:27;;;;;;;24.90;11.87;;;;;;;19.87;28.18;99693.86;1439094;90;21383;-85
2022/03/29 10:32:01;;;;;;;21.20;10.60;;;;;;;19.92;28.41;99678.70;1438183;90;21340;-85
2022/03/29 10:34:42;;;;;;;21.17;10.93;;;;;;;20.07;28.05;99679.64;1437456;90;21487;-84
2022/03/29 10:37:11;;;;;;;;;;;;;;;20.08;28.37;99677.77;1441526;90;21420;-86
2022/03/29 10:39:46;;;;;;;29.27;10.77;;;;;;;20.20;28.40;99671.94;1443577;91;20271;-85
2022/03/29 10:42:31;;;;;;;19.80;10.57;;;;;;;20.25;28.03;99669.36;1441304;90;21332;-84
2022/03/29 10:45:14;;;;;;;45.67;11.83;;;;;;;20.35;28.01;99669.62;1431154;90;22381;-85
2022/03/29 10:47:43;;;;;;;18.60;9.77;;;;;;;20.48;28.25;99657.84;1423201;91;21569;-85
2022/03/29 10:50:12;;;;;;;20.33;9.23;;;;;;;20.63;27.93;99655.58;1427206;90;21413;-85
2022/03/29 10:52:42;;;;;;;23.33;10.33;;;;;;;20.65;28.04;99648.08;1431622;90;21369;-85
2022/03/29 10:55:25;;;;;;;15.68;8.35;;;;;;;20.83;27.87;99649.02;1443246;90;21377;-85
2022/03/29 10:58:08;;;;;;;22.13;9.58;;;;;;;20.88;27.82;99647.80;1441074;90;21310;-85
2022/03/29 11:00:37;;;;;;;19.07;9.30;;;;;;;20.92;28.05;99632.31;1436013;90;21368;-86
2022/03/29 11:03:22;;;;;;;18.60;9.90;;;;;;;21.07;27.86;99626.45;1436196;90;21407;-84
2022/03/29 11:06:10;;;;;;;23.52;8.55;;;;;;;21.19;27.76;99624.55;1442517;90;21348;-85
2022/03/29 11:08:48;;;;;;;14.83;8.15;;;;;;;21.43;27.64;99619.15;1435848;90;22213;-84
2022/03/29 11:11:47;;;;;;;14.95;9.20;;;;;;;21.65;27.28;99614.47;1437576;90;22315;-84
2022/03/29 11:14:35;;;;;;;17.10;9.03;;;;;;;21.68;26.66;99605.91;1436398;90;21384;-85
2022/03/29 11:17:12;;;;;;;21.50;7.58;;;;;;;21.81;26.88;99615.06;1439593;90;21406;-87
2022/03/29 11:19:46;;;;;;;38.88;9.15;;;;;;;21.70;26.31;99607.31;1442956;90;21553;-86
2022/03/29 11:22:35;;;;;;;12.33;6.50;;;;;;;21.67;26.61;99594.86;1454573;90;21436;-85
2022/03/29 11:25:05;;;;;;;12.82;7.22;;;;;;;21.74;26.32;99602.25;1452285;89;21360;-84
2022/03/29 11:27:35;;;;;;;9.50;6.85;;;;;;;21.94;25.96;99593.20;1439366;89;22396;-83
2022/03/29 11:30:07;;;;;;;22.48;8.58;;;;;;;22.02;26.05;99588.77;1458362;89;22401;-84
2022/03/29 11:32:49;;;;;;;20.12;8.98;;;;;;;22.09;25.94;99575.13;1456384;89;21487;-84
2022/03/29 11:35:15;;;;;;;12.15;7.37;;;;;;;22.38;26.00;99578.59;1465165;88;21493;-84
2022/03/29 11:37:45;;;;;;;17.12;8.03;;;;;;;22.41;25.14;99568.69;1461724;88;21478;-84